Columbus, Ohio
Traffic Map
Current Weather Conditions
Columbus, Ohio
Overcast
Overcast
26°
Feels Like: 16°
Wind Chill: 16° Ceiling: 2600
Heat Index: 26° Visibility: 10mi
Dew Point: 18° Wind: 10mph
Humidity: 71% Direction: 270° (W)
Pressure: 30.5in Gusts: 0mph
Raw Report DataKCMH 101751Z 27009KT 10SM OVC026 M03/M08 A3050 RMK AO2 SLP339 60000 T10331078 11033 21050 58015 CHINO NW
Traffic Incident Summary
Active as of:
Severity:
Category:
InformationThere was an issue retrieving the traffic information for this location. Please try a different location or try again shortly.
Advertisements
Track Severe Weather on mobile